Crumpler, NC

7:26 AM EST on February 25, 2017 (GMT -0500)
Ashe County

Weather History for KGEV - December, 2007

Change the Weather History Date:

Monday, December 24, 2007

  Actual Average Record
Temperature  
Mean Temperature 38 °F -  
Max Temperature 44 °F 44 °F 65 °F (2015)
Min Temperature 33 °F 23 °F -5 °F (1983)
Degree Days  
Heating Degree Days 26    
Moisture  
Dew Point 11 °F    
Average Humidity 33    
Maximum Humidity 44    
Minimum Humidity 21    
Precipitation  
Precipitation 0.00 in - - ()
Sea Level Pressure  
Sea Level Pressure 30.05 in    
Wind  
Wind Speed 19 mph (West)    
Max Wind Speed 31 mph    
Max Gust Speed 44 mph    
Visibility 10 miles    
Events      
Averages and records for this station are not official NWS values.
T = Trace of Precipitation, MM = Missing Value Source: NWS Daily Summary

Daily Weather History Graph

Daily Weather History Graph

Search for Another Location

Airport or City:

Trip Planner

Search our weather history database for the weather conditions in past years. The results will help you decide how hot, cold, wet, or windy it might be!

Date:

Astronomy

Dec. 24, 2007 Rise Set
Actual Time 7:34 AM EST 5:15 PM EST
Civil Twilight 7:06 AM EST 5:44 PM EST
Nautical Twilight 6:33 AM EST 6:16 PM EST
Astronomical Twilight 6:02 AM EST 6:48 PM EST
Moon 5:56 PM EST (12/24) 8:23 AM EST (12/24)
Length of Visible Light 10h 38m
Length of Day
9h 40m
Waxing Gibbous, 99% of the Moon is Illuminated
Dec 24
Waxing Gibbous
Dec 31
Last Quarter
Jan 8
New
Jan 15
First Quarter
Jan 22
Full

Hourly Weather History & Observations

Time (EST) Temp. Windchill Dew Point Humidity Pressure Visibility Wind Dir Wind Speed Gust Speed Precip Events Conditions
12:02 AM 33.8 °F 22.8 °F 14.0 °F 44% 29.98 in 10.0 mi WNW 18.4 mph 25.3 mph N/A   Clear
12:22 AM 33.8 °F 23.5 °F 14.0 °F 44% 29.98 in 10.0 mi West 16.1 mph 31.1 mph N/A   Clear
12:42 AM 33.8 °F 21.0 °F 12.2 °F 41% 29.98 in 10.0 mi WNW 25.3 mph 33.4 mph N/A   Clear
1:02 AM 33.8 °F 23.2 °F 12.2 °F 41% 29.98 in 10.0 mi West 17.3 mph 25.3 mph N/A   Clear
1:23 AM 33.8 °F 21.9 °F 10.4 °F 38% 29.98 in 10.0 mi WNW 21.9 mph 34.5 mph N/A   Clear
1:42 AM 33.8 °F 22.2 °F 10.4 °F 38% 29.98 in 10.0 mi West 20.7 mph 35.7 mph N/A   Clear
2:02 AM 33.8 °F 22.5 °F 12.2 °F 41% 29.99 in 10.0 mi WNW 19.6 mph 32.2 mph N/A   Clear
2:22 AM 33.8 °F 20.8 °F 12.2 °F 41% 29.99 in 10.0 mi West 26.5 mph 38.0 mph N/A   Clear
2:42 AM 33.8 °F 21.6 °F 12.2 °F 41% 29.98 in 10.0 mi WNW 23.0 mph 38.0 mph N/A   Clear
3:02 AM 33.8 °F 19.9 °F 12.2 °F 41% 29.98 in 10.0 mi WNW 31.1 mph 43.7 mph N/A   Clear
3:22 AM 33.8 °F 20.3 °F 12.2 °F 41% 29.98 in 10.0 mi WNW 28.8 mph 42.6 mph N/A   Clear
3:42 AM 33.8 °F 21.9 °F 12.2 °F 41% 30.00 in 10.0 mi West 21.9 mph 39.1 mph N/A   Clear
4:02 AM 33.8 °F 20.8 °F 12.2 °F 41% 29.99 in 10.0 mi WNW 26.5 mph 41.4 mph N/A   Clear
4:22 AM 33.8 °F 22.2 °F 12.2 °F 41% 29.99 in 10.0 mi WNW 20.7 mph 36.8 mph N/A   Clear
4:42 AM 33.8 °F 20.8 °F 12.2 °F 41% 29.99 in 10.0 mi West 26.5 mph 33.4 mph N/A   Clear
5:02 AM 33.8 °F 20.8 °F 12.2 °F 41% 29.98 in 10.0 mi West 26.5 mph 40.3 mph N/A   Clear
5:22 AM 33.8 °F 21.6 °F 12.2 °F 41% 30.00 in 10.0 mi West 23.0 mph 31.1 mph N/A   Clear
5:42 AM 33.8 °F 21.3 °F 12.2 °F 41% 29.99 in 10.0 mi West 24.2 mph 39.1 mph N/A   Clear
6:02 AM 33.8 °F 23.2 °F 12.2 °F 41% 30.00 in 10.0 mi West 17.3 mph 29.9 mph N/A   Clear
6:22 AM 33.8 °F 23.5 °F 12.2 °F 41% 30.02 in 10.0 mi WNW 16.1 mph 33.4 mph N/A   Clear
6:42 AM 33.8 °F 20.8 °F 12.2 °F 41% 30.02 in 10.0 mi WNW 26.5 mph 35.7 mph N/A   Clear
7:02 AM 33.8 °F 22.8 °F 12.2 °F 41% 30.01 in 10.0 mi WNW 18.4 mph 39.1 mph N/A   Clear
7:22 AM 33.8 °F 20.8 °F 12.2 °F 41% 30.00 in 10.0 mi West 26.5 mph 35.7 mph N/A   Clear
7:42 AM 33.8 °F 20.3 °F 12.2 °F 41% 30.01 in 10.0 mi WNW 28.8 mph 41.4 mph N/A   Clear
8:02 AM 33.8 °F 21.3 °F 12.2 °F 41% 30.02 in 10.0 mi WNW 24.2 mph 39.1 mph N/A   Clear
8:22 AM 33.8 °F 20.1 °F 12.2 °F 41% 30.02 in 10.0 mi West 29.9 mph 42.6 mph N/A   Clear
8:42 AM 33.8 °F 19.9 °F 12.2 °F 41% 30.02 in 10.0 mi West 31.1 mph 40.3 mph N/A   Clear
9:02 AM 33.8 °F 20.8 °F 10.4 °F 38% 30.04 in 10.0 mi West 26.5 mph 40.3 mph N/A   Clear
9:22 AM 33.8 °F 20.1 °F 10.4 °F 38% 30.05 in 10.0 mi West 29.9 mph 39.1 mph N/A   Clear
9:42 AM 35.6 °F 23.0 °F 12.2 °F 38% 30.06 in 10.0 mi West 27.6 mph 39.1 mph N/A   Clear
10:02 AM 35.6 °F 23.0 °F 10.4 °F 35% 30.07 in 10.0 mi West 27.6 mph 38.0 mph N/A   Clear
10:22 AM 37.4 °F 25.9 °F 12.2 °F 36% 30.07 in 10.0 mi West 25.3 mph 40.3 mph N/A   Clear
10:42 AM 37.4 °F 27.8 °F 12.2 °F 36% 30.08 in 10.0 mi WNW 17.3 mph 34.5 mph N/A   Clear
11:02 AM 37.4 °F 28.2 °F 12.2 °F 36% 30.09 in 10.0 mi WNW 16.1 mph 31.1 mph N/A   Clear
11:22 AM 37.4 °F 27.8 °F 12.2 °F 36% 30.09 in 10.0 mi WNW 17.3 mph 34.5 mph N/A   Clear
11:42 AM 39.2 °F 31.2 °F 12.2 °F 33% 30.10 in 10.0 mi West 13.8 mph 26.5 mph N/A   Clear
12:02 PM 39.2 °F 32.0 °F 12.2 °F 33% 30.10 in 10.0 mi West 11.5 mph 26.5 mph N/A   Clear
12:22 PM 42.8 °F 35.4 °F 12.2 °F 29% 30.09 in 10.0 mi WNW 15.0 mph 23.0 mph N/A   Clear
12:42 PM 42.8 °F 37.5 °F 12.2 °F 29% 30.09 in 10.0 mi West 9.2 mph 21.9 mph N/A   Clear
1:02 PM 42.8 °F 36.6 °F 10.4 °F 27% 30.08 in 10.0 mi West 11.5 mph 18.4 mph N/A   Clear
1:22 PM 44.6 °F 40.2 °F 10.4 °F 25% 30.07 in 10.0 mi West 8.1 mph 16.1 mph N/A   Clear
1:42 PM 44.6 °F 39.2 °F 10.4 °F 25% 30.08 in 10.0 mi West 10.4 mph 16.1 mph N/A   Clear
2:02 PM 44.6 °F 38.8 °F 10.4 °F 25% 30.07 in 10.0 mi West 11.5 mph 17.3 mph N/A   Clear
2:22 PM 44.6 °F 38.8 °F 10.4 °F 25% 30.07 in 10.0 mi West 11.5 mph - N/A   Clear
2:42 PM 44.6 °F 40.7 °F 10.4 °F 25% 30.07 in 10.0 mi WSW 6.9 mph - N/A   Clear
3:02 PM 44.6 °F 39.7 °F 8.6 °F 23% 30.08 in 10.0 mi WSW 9.2 mph 18.4 mph N/A   Clear
3:22 PM 44.6 °F 38.4 °F 8.6 °F 23% 30.07 in 10.0 mi West 12.7 mph 20.7 mph N/A   Clear
3:42 PM 44.6 °F 36.9 °F 8.6 °F 23% 30.08 in 10.0 mi West 18.4 mph 25.3 mph N/A   Clear
4:02 PM 44.6 °F 37.4 °F 6.8 °F 21% 30.08 in 10.0 mi West 16.1 mph - N/A   Clear
4:22 PM 44.6 °F 36.9 °F 6.8 °F 21% 30.09 in 10.0 mi West 18.4 mph 24.2 mph N/A   Clear
4:42 PM 44.6 °F 37.4 °F 6.8 °F 21% 30.09 in 10.0 mi West 16.1 mph 20.7 mph N/A   Clear
5:02 PM 42.8 °F 37.0 °F 6.8 °F 23% 30.10 in 10.0 mi West 10.4 mph - N/A   Clear
5:22 PM 42.8 °F 35.8 °F 6.8 °F 23% 30.09 in 10.0 mi West 13.8 mph - N/A   Clear
5:43 PM 42.8 °F 35.4 °F 6.8 °F 23% 30.09 in 10.0 mi West 15.0 mph 19.6 mph N/A   Clear
6:22 PM 42.8 °F 37.0 °F 6.8 °F 23% 30.10 in 10.0 mi West 10.4 mph 16.1 mph N/A   Clear
6:42 PM 41.0 °F 35.8 °F 6.8 °F 24% 30.11 in 10.0 mi West 8.1 mph - N/A   Clear
7:02 PM 39.2 °F 33.6 °F 6.8 °F 26% 30.11 in 10.0 mi West 8.1 mph - N/A   Clear
7:42 PM 39.2 °F 32.5 °F 5.0 °F 24% 30.13 in 10.0 mi West 10.4 mph - N/A   Clear
8:02 PM 39.2 °F 32.5 °F 6.8 °F 26% 30.13 in 10.0 mi West 10.4 mph - N/A   Clear
8:22 PM 39.2 °F 32.5 °F 8.6 °F 28% 30.13 in 10.0 mi West 10.4 mph - N/A   Clear
8:42 PM 39.2 °F 32.0 °F 8.6 °F 28% 30.13 in 10.0 mi WNW 11.5 mph 23.0 mph N/A   Clear
9:03 PM 39.2 °F 32.5 °F 8.6 °F 28% 30.13 in 10.0 mi WNW 10.4 mph 19.6 mph N/A   Clear
9:24 PM 39.2 °F 34.2 °F 8.6 °F 28% 30.14 in 10.0 mi WSW 6.9 mph - N/A   Clear
9:42 PM 39.2 °F 35.9 °F 8.6 °F 28% 30.14 in 10.0 mi NNW 4.6 mph - N/A   Clear
10:02 PM 39.2 °F 37.0 °F 8.6 °F 28% 30.14 in 10.0 mi West 3.5 mph - N/A   Clear
10:22 PM 39.2 °F 33.0 °F 10.4 °F 31% 30.15 in 10.0 mi WNW 9.2 mph - N/A   Clear
10:42 PM 39.2 °F 31.6 °F 10.4 °F 31% 30.15 in 10.0 mi West 12.7 mph 17.3 mph N/A   Clear
11:02 PM 39.2 °F 31.2 °F 10.4 °F 31% 30.15 in 10.0 mi West 13.8 mph 17.3 mph N/A   Scattered Clouds